Time;durP1;ratioP1;P1;durP2;ratioP2;P2;SDS_P1;SDS_P2;PMS_P1;PMS_P2;Temp;Humidity;BMP_temperature;BMP_pressure;BME280_temperature;BME280_humidity;BME280_pressure;Samples;Min_cycle;Max_cycle;Signal;HPM_P1;HPM_P2
2022/07/04 00:00:16;;;;;;;47.92;5.13;;;;;;;25.51;53.18;99313.91;7313849;19;129548;-37
2022/07/04 00:02:43;;;;;;;17.05;2.13;;;;;;;25.59;53.10;99332.28;7313703;19;130551;-37
2022/07/04 00:05:10;;;;;;;46.45;4.78;;;;;;;25.57;53.18;99323.72;7318240;19;129067;-37
2022/07/04 00:07:47;;;;;;;45.00;4.63;;;;;;;25.55;55.12;99325.75;7313280;19;129746;-37
2022/07/04 00:10:15;;;;;;;36.60;4.00;;;;;;;25.59;52.53;99332.28;7314122;19;129163;-37
2022/07/04 00:12:41;;;;;;;16.58;2.25;;;;;;;25.58;52.63;99335.94;7314276;19;130857;-37
2022/07/04 00:15:08;;;;;;;28.23;3.33;;;;;;;25.56;53.38;99335.28;7313094;19;129624;-37
2022/07/04 00:17:33;;;;;;;27.15;3.08;;;;;;;25.59;52.18;99348.09;7316005;19;129089;-37
2022/07/04 00:19:59;;;;;;;42.10;4.63;;;;;;;25.59;52.84;99342.81;7311917;19;130364;-38
2022/07/04 00:22:24;;;;;;;25.63;3.13;;;;;;;25.57;52.81;99342.16;7312391;19;131473;-37
2022/07/04 00:24:50;;;;;;;28.30;3.40;;;;;;;25.57;53.13;99344.78;7314655;19;130058;-37
2022/07/04 00:27:15;;;;;;;26.27;3.13;;;;;;;25.59;52.36;99342.81;7315840;19;129048;-37
2022/07/04 00:29:41;;;;;;;29.17;3.10;;;;;;;25.59;52.57;99340.19;7314859;19;131058;-37
2022/07/04 00:32:07;;;;;;;36.87;4.00;;;;;;;25.59;52.05;99348.09;7309484;19;129997;-38
2022/07/04 00:34:32;;;;;;;21.13;2.67;;;;;;;25.57;52.78;99334.25;7313407;19;128998;-37
2022/07/04 00:36:57;;;;;;;18.43;2.53;;;;;;;25.52;52.28;99326.06;7315620;19;128907;-37
2022/07/04 00:39:23;;;;;;;17.40;2.67;;;;;;;25.59;52.20;99340.19;7315266;19;129523;-37
2022/07/04 00:41:48;;;;;;;27.83;3.00;;;;;;;25.57;52.57;99339.53;7313396;19;129176;-37
2022/07/04 00:44:17;;;;;;;35.03;4.30;;;;;;;25.58;52.82;99333.28;7314717;19;129353;-37
2022/07/04 00:46:44;;;;;;;24.73;3.03;;;;;;;25.60;52.83;99341.84;7314602;19;129028;-37
2022/07/04 00:49:10;;;;;;;32.10;3.78;;;;;;;25.60;52.11;99347.13;7313939;19;129165;-37
2022/07/04 00:51:38;;;;;;;33.58;4.00;;;;;;;25.59;53.04;99348.91;7312059;19;129515;-37
2022/07/04 00:54:05;;;;;;;18.63;2.95;;;;;;;25.56;52.90;99346.63;7314352;19;129932;-37
2022/07/04 00:56:31;;;;;;;17.95;2.72;;;;;;;25.57;52.27;99356.16;7315545;19;131471;-37
2022/07/04 00:58:59;;;;;;;20.20;2.53;;;;;;;25.59;52.39;99348.09;7315494;19;129201;-37
2022/07/04 01:01:25;;;;;;;15.77;2.65;;;;;;;25.55;52.66;99365.22;7313104;19;131159;-37
2022/07/04 01:03:51;;;;;;;25.63;3.20;;;;;;;25.57;52.78;99368.50;7315063;19;129783;-37
2022/07/04 01:06:18;;;;;;;22.08;2.90;;;;;;;25.55;52.63;99363.41;7314575;19;128961;-37
2022/07/04 01:08:44;;;;;;;21.20;2.63;;;;;;;25.60;52.41;99376.06;7313964;19;129595;-37
2022/07/04 01:11:10;;;;;;;36.67;3.97;;;;;;;25.54;52.56;99377.56;7314084;19;130404;-37
2022/07/04 01:13:36;;;;;;;29.50;3.37;;;;;;;25.47;52.77;99359.97;7313205;19;129036;-37
2022/07/04 01:16:02;;;;;;;28.97;3.70;;;;;;;25.53;52.54;99383.00;7313234;19;131093;-37
2022/07/04 01:18:28;;;;;;;;;;;;;;;25.58;55.82;99383.31;7311233;19;129830;-37
2022/07/04 01:20:53;;;;;;;18.43;2.47;;;;;;;25.55;53.13;99389.72;7312290;19;129267;-37
2022/07/04 01:23:19;;;;;;;29.87;3.50;;;;;;;25.54;52.80;99387.25;7312219;19;129189;-37
2022/07/04 01:25:45;;;;;;;32.50;3.73;;;;;;;25.55;52.30;99386.28;7313460;19;130971;-37
2022/07/04 01:28:10;;;;;;;31.93;3.70;;;;;;;25.55;52.75;99394.19;7313518;19;129823;-37
2022/07/04 01:30:37;;;;;;;31.53;3.67;;;;;;;25.51;51.50;99387.59;7313452;19;130213;-37
2022/07/04 01:33:02;;;;;;;22.13;2.92;;;;;;;25.51;52.13;99398.97;7312143;19;129393;-37
2022/07/04 01:35:28;;;;;;;32.13;3.67;;;;;;;25.53;52.23;99401.44;7313093;19;128886;-37
2022/07/04 01:37:53;;;;;;;30.50;3.47;;;;;;;25.54;52.26;99418.84;7313665;19;130272;-37
2022/07/04 01:40:19;;;;;;;36.20;4.17;;;;;;;25.51;52.50;99419.19;7311743;19;130849;-37
2022/07/04 01:42:45;;;;;;;22.23;2.95;;;;;;;25.50;51.99;99422.84;7312442;19;130212;-37
2022/07/04 01:45:11;;;;;;;27.23;3.27;;;;;;;25.50;52.08;99428.09;7311466;19;130928;-37
2022/07/04 01:47:37;;;;;;;29.85;3.60;;;;;;;25.46;52.20;99426.78;7313045;19;131168;-37
2022/07/04 01:50:08;;;;;;;42.25;4.32;;;;;;;25.46;54.00;99426.78;7313364;19;129677;-37
2022/07/04 01:52:34;;;;;;;25.27;3.25;;;;;;;25.50;51.72;99449.16;7310742;19;128880;-37
2022/07/04 01:55:00;;;;;;;16.27;2.43;;;;;;;25.51;52.06;99448.16;7310953;19;129030;-37
2022/07/04 01:57:25;;;;;;;30.67;3.60;;;;;;;25.51;51.58;99453.44;7311501;19;129459;-38
2022/07/04 02:02:35;;;;;;;33.25;3.85;;;;;;;25.49;51.69;99463.28;7309674;19;129365;-37
2022/07/04 02:05:01;;;;;;;26.65;3.00;;;;;;;25.48;51.55;99456.41;7313136;19;129180;-37
2022/07/04 02:07:27;;;;;;;33.23;3.43;;;;;;;25.47;52.26;99476.63;7312441;19;130236;-37
2022/07/04 02:09:52;;;;;;;32.23;3.97;;;;;;;25.47;52.10;99470.53;7311409;19;129560;-37
2022/07/04 02:15:03;;;;;;;23.10;2.70;;;;;;;25.49;51.88;99476.47;7311469;19;129601;-37
2022/07/04 02:17:28;;;;;;;26.75;3.20;;;;;;;25.49;51.81;99473.81;7311777;19;129047;-37
2022/07/04 02:19:53;;;;;;;40.27;4.37;;;;;;;25.49;52.14;99476.47;7311457;19;130043;-37
2022/07/04 02:22:19;;;;;;;33.93;3.60;;;;;;;25.40;52.33;99459.06;7310532;19;129263;-37
2022/07/04 02:24:44;;;;;;;28.43;3.43;;;;;;;25.47;51.87;99475.78;7313002;19;129166;-37
2022/07/04 02:27:10;;;;;;;21.73;2.47;;;;;;;25.50;51.81;99486.00;7310699;19;129950;-37
2022/07/04 02:29:36;;;;;;;35.07;3.90;;;;;;;25.51;51.83;99492.91;7310811;19;130332;-38
2022/07/04 02:32:02;;;;;;;12.57;1.90;;;;;;;25.48;51.78;99493.25;7309642;19;131108;-37
2022/07/04 02:34:28;;;;;;;23.33;2.50;;;;;;;25.49;51.57;99495.72;7310712;19;129177;-37
2022/07/04 02:36:54;;;;;;;24.60;2.63;;;;;;;25.52;51.52;99499.81;7311475;19;129693;-37
2022/07/04 02:39:19;;;;;;;27.30;2.90;;;;;;;25.50;52.24;99496.53;7311596;19;130967;-37
2022/07/04 02:41:44;;;;;;;34.27;4.03;;;;;;;25.50;51.53;99512.34;7309359;19;130114;-37
2022/07/04 02:44:10;;;;;;;29.17;3.03;;;;;;;25.50;52.22;99502.59;7312578;19;129215;-37
2022/07/04 02:46:35;;;;;;;23.73;2.65;;;;;;;25.48;51.37;99514.31;7310899;19;130519;-37
2022/07/04 02:49:02;;;;;;;27.47;3.03;;;;;;;25.52;51.73;99515.59;7311745;19;129300;-37
2022/07/04 02:51:28;;;;;;;29.83;3.03;;;;;;;25.51;51.72;99514.81;7309468;19;130253;-37
2022/07/04 02:53:53;;;;;;;24.97;3.00;;;;;;;25.52;51.59;99520.88;7310746;19;129136;-37
2022/07/04 02:56:18;;;;;;;26.30;2.83;;;;;;;25.51;51.51;99520.06;7310719;19;130851;-37
2022/07/04 02:58:44;;;;;;;25.40;2.90;;;;;;;25.53;51.34;99518.09;7310698;19;129145;-37
2022/07/04 03:01:12;;;;;;;24.70;2.83;;;;;;;25.46;52.34;99513.66;7310417;19;129001;-37
2022/07/04 03:03:37;;;;;;;19.00;2.10;;;;;;;25.53;51.51;99528.63;7310375;19;129072;-37
2022/07/04 03:06:03;;;;;;;44.10;4.30;;;;;;;25.49;51.77;99519.41;7307755;19;129522;-37
2022/07/04 03:08:28;;;;;;;22.20;2.47;;;;;;;25.53;52.42;99526.00;7307402;19;129626;-37
2022/07/04 03:10:54;;;;;;;51.30;5.00;;;;;;;25.55;52.51;99520.56;7308365;19;129291;-37
2022/07/04 03:13:19;;;;;;;42.87;4.20;;;;;;;25.54;51.73;99518.91;7306920;19;128966;-37
2022/07/04 03:15:45;;;;;;;20.52;2.28;;;;;;;25.56;52.17;99538.81;7310275;19;129138;-37
2022/07/04 03:18:11;;;;;;;30.50;3.13;;;;;;;25.56;51.68;99535.34;7309338;19;130257;-37
2022/07/04 03:20:36;;;;;;;21.73;2.27;;;;;;;25.57;51.50;99537.00;7309220;19;129999;-37
2022/07/04 03:23:02;;;;;;;37.17;3.40;;;;;;;25.47;51.50;99525.81;7308717;19;129422;-37
2022/07/04 03:25:27;;;;;;;21.73;2.60;;;;;;;25.54;52.12;99535.53;7317799;19;130476;-37
2022/07/04 03:27:53;;;;;;;19.60;2.40;;;;;;;25.56;52.08;99545.88;7317561;19;129634;-37
2022/07/04 03:30:18;;;;;;;39.40;4.30;;;;;;;25.57;51.61;99543.09;7316990;19;130961;-37
2022/07/04 03:32:44;;;;;;;19.20;2.23;;;;;;;25.59;52.09;99548.19;7314091;19;129075;-37
2022/07/04 03:35:09;;;;;;;35.20;4.00;;;;;;;25.56;52.04;99548.53;7314700;19;130066;-37
2022/07/04 03:37:34;;;;;;;26.53;2.93;;;;;;;25.57;51.74;99555.41;7317343;19;129224;-37
2022/07/04 03:40:00;;;;;;;32.80;3.60;;;;;;;25.57;51.22;99548.34;7316782;19;130159;-37
2022/07/04 03:42:25;;;;;;;30.27;3.53;;;;;;;25.55;51.65;99552.16;7314774;19;130356;-37
2022/07/04 03:44:51;;;;;;;24.30;2.77;;;;;;;25.52;52.05;99560.34;7317084;19;130157;-37
2022/07/04 03:47:16;;;;;;;36.30;3.50;;;;;;;25.52;51.80;99563.00;7316875;19;130683;-38
2022/07/04 03:49:41;;;;;;;16.73;2.27;;;;;;;25.52;52.78;99569.09;7316345;19;128783;-37
2022/07/04 03:52:07;;;;;;;33.97;3.57;;;;;;;25.52;52.21;99573.53;7313533;19;129204;-37
2022/07/04 03:54:32;;;;;;;33.23;3.37;;;;;;;25.52;52.19;99568.25;7313560;19;130041;-37
2022/07/04 03:56:58;;;;;;;31.73;3.10;;;;;;;25.52;51.51;99576.16;7315453;19;130128;-37
2022/07/04 03:59:23;;;;;;;30.10;2.93;;;;;;;25.46;50.90;99563.66;7315813;19;130527;-37
2022/07/04 04:01:49;;;;;;;23.90;2.77;;;;;;;25.55;50.95;99578.47;7313303;19;129281;-37
2022/07/04 04:06:58;;;;;;;23.92;2.67;;;;;;;25.52;52.45;99578.78;7317074;19;129550;-38
2022/07/04 04:09:24;;;;;;;46.67;4.67;;;;;;;25.51;51.17;99574.53;7314310;19;129591;-37
2022/07/04 04:11:50;;;;;;;21.77;2.55;;;;;;;25.53;51.32;99580.44;7313864;19;130368;-37
2022/07/04 04:14:16;;;;;;;41.28;3.88;;;;;;;25.53;51.67;99583.09;7314993;19;129663;-37
2022/07/04 04:16:42;;;;;;;18.53;2.13;;;;;;;25.54;51.32;99582.09;7314519;19;129588;-37
2022/07/04 04:19:08;;;;;;;21.00;2.65;;;;;;;25.53;52.08;99581.28;7315452;19;128776;-37
2022/07/04 04:21:33;;;;;;;32.70;3.13;;;;;;;25.51;51.28;99577.16;7312342;19;128941;-37
2022/07/04 04:23:59;;;;;;;44.00;4.43;;;;;;;25.52;51.41;99589.31;7313412;19;129457;-37
2022/07/04 04:26:24;;;;;;;42.33;4.13;;;;;;;25.54;51.41;99588.19;7315135;19;129117;-37
2022/07/04 04:28:49;;;;;;;18.27;2.07;;;;;;;25.55;51.36;99584.56;7315608;19;128853;-37
2022/07/04 04:31:17;;;;;;;33.67;3.67;;;;;;;25.48;51.44;99577.50;7312158;19;129851;-37
2022/07/04 04:33:42;;;;;;;34.42;3.65;;;;;;;25.47;52.02;99576.66;7312288;19;129565;-37
2022/07/04 04:36:07;;;;;;;26.60;3.03;;;;;;;25.54;52.38;99587.34;7314766;19;130517;-37
2022/07/04 04:38:33;;;;;;;35.57;3.60;;;;;;;25.55;52.59;99594.28;7312815;19;129201;-37
2022/07/04 04:40:58;;;;;;;48.90;4.90;;;;;;;25.54;51.45;99608.41;7311572;19;130956;-37
2022/07/04 04:43:23;;;;;;;55.37;5.40;;;;;;;25.54;51.70;99608.41;7310972;19;130080;-37
2022/07/04 04:45:49;;;;;;;29.33;3.03;;;;;;;25.56;52.07;99611.72;7315046;19;130394;-38
2022/07/04 04:48:14;;;;;;;25.20;3.13;;;;;;;25.48;52.22;99593.28;7315138;19;129940;-37
2022/07/04 04:50:40;;;;;;;23.43;2.40;;;;;;;25.57;51.25;99613.34;7312617;19;129301;-37
2022/07/04 04:53:05;;;;;;;34.97;3.53;;;;;;;25.55;52.05;99623.25;7310877;19;129594;-37
2022/07/04 04:55:31;;;;;;;26.43;2.77;;;;;;;25.58;51.48;99628.97;7312828;19;130894;-37
2022/07/04 04:57:56;;;;;;;25.40;2.67;;;;;;;25.56;51.23;99627.50;7314828;19;129422;-38
2022/07/04 05:00:21;;;;;;;23.50;2.58;;;;;;;25.54;52.01;99624.22;7314144;19;129178;-37
2022/07/04 05:02:47;;;;;;;30.90;3.30;;;;;;;25.58;51.28;99646.59;7309971;19;129065;-37
2022/07/04 05:05:12;;;;;;;36.60;3.77;;;;;;;25.57;51.96;99642.31;7314752;19;130790;-37
2022/07/04 05:07:38;;;;;;;45.07;4.80;;;;;;;25.53;51.87;99655.00;7312438;19;129473;-37
2022/07/04 05:10:03;;;;;;;39.10;4.33;;;;;;;25.56;51.92;99654.66;7311737;19;129106;-37
2022/07/04 05:12:29;;;;;;;32.67;3.45;;;;;;;25.58;51.19;99659.78;7309011;19;129797;-37
2022/07/04 05:14:55;;;;;;;19.37;2.13;;;;;;;25.50;52.48;99657.13;7312300;19;129087;-37
2022/07/04 05:17:20;;;;;;;43.73;4.20;;;;;;;25.48;51.84;99659.09;7312513;19;129568;-37
2022/07/04 05:19:47;;;;;;;13.40;1.77;;;;;;;25.48;51.93;99667.00;7314065;19;129880;-37
2022/07/04 05:22:12;;;;;;;25.50;3.00;;;;;;;25.46;51.34;99661.91;7311206;19;129590;-37
2022/07/04 05:24:40;;;;;;;46.70;4.50;;;;;;;25.49;51.86;99658.09;7312441;19;129676;-37
2022/07/04 05:27:07;;;;;;;23.77;2.65;;;;;;;25.48;51.35;99662.56;7312248;19;129388;-37
2022/07/04 05:29:32;;;;;;;13.40;1.83;;;;;;;25.49;51.79;99652.84;7312800;19;129521;-37
2022/07/04 05:31:58;;;;;;;21.57;2.20;;;;;;;25.48;51.81;99667.84;7306991;19;129679;-37
2022/07/04 05:34:23;;;;;;;27.43;3.00;;;;;;;25.46;51.17;99651.38;7312746;19;130510;-37
2022/07/04 05:36:49;;;;;;;30.80;3.30;;;;;;;25.49;51.96;99652.84;7311874;19;129416;-37
2022/07/04 05:39:14;;;;;;;27.45;3.35;;;;;;;25.46;51.96;99656.63;7313534;19;130752;-38
2022/07/04 05:41:40;;;;;;;26.70;3.00;;;;;;;25.49;52.33;99652.84;7310964;19;129594;-37
2022/07/04 05:44:05;;;;;;;20.57;2.37;;;;;;;25.47;51.83;99653.00;7311717;19;129120;-37
2022/07/04 05:46:31;;;;;;;26.20;3.13;;;;;;;25.49;51.59;99658.09;7308554;19;129762;-38
2022/07/04 05:48:56;;;;;;;25.07;2.93;;;;;;;25.53;52.14;99659.44;7312586;19;129380;-37
2022/07/04 05:51:22;;;;;;;46.13;4.50;;;;;;;25.53;51.86;99675.22;7309141;19;129427;-37
2022/07/04 05:53:47;;;;;;;20.57;2.17;;;;;;;25.53;52.73;99665.53;7312467;19;129094;-37
2022/07/04 05:56:13;;;;;;;24.88;2.78;;;;;;;25.52;52.73;99663.03;7312935;19;129971;-38
2022/07/04 05:58:39;;;;;;;29.83;3.03;;;;;;;25.51;52.20;99656.97;7309974;19;129919;-37
2022/07/04 06:01:04;;;;;;;31.50;3.40;;;;;;;25.54;52.26;99661.06;7307381;19;130543;-37
2022/07/04 06:03:30;;;;;;;31.63;3.27;;;;;;;25.51;51.97;99666.66;7311118;19;130114;-37
2022/07/04 06:05:55;;;;;;;35.87;4.00;;;;;;;25.53;52.94;99669.97;7312299;19;128994;-37
2022/07/04 06:08:21;;;;;;;33.87;4.27;;;;;;;25.45;52.43;99662.88;7311549;19;129194;-37
2022/07/04 06:10:47;;;;;;;44.03;4.00;;;;;;;25.52;52.73;99676.19;7310271;19;130636;-37
2022/07/04 06:13:12;;;;;;;19.03;2.10;;;;;;;25.55;52.33;99683.78;7309203;19;129028;-38
2022/07/04 06:15:38;;;;;;;32.53;3.57;;;;;;;25.50;52.98;99672.94;7308935;19;128975;-37
2022/07/04 06:18:03;;;;;;;27.23;3.03;;;;;;;25.48;52.41;99667.00;7311863;19;129330;-37
2022/07/04 06:20:29;;;;;;;39.53;3.80;;;;;;;25.47;52.15;99671.44;7310857;19;129413;-37
2022/07/04 06:22:55;;;;;;;23.27;2.47;;;;;;;25.50;52.91;99667.66;7308476;19;130939;-37
2022/07/04 06:25:20;;;;;;;24.40;2.83;;;;;;;25.50;53.09;99675.56;7311529;19;129938;-37
2022/07/04 06:27:48;;;;;;;50.33;4.83;;;;;;;25.48;52.58;99672.25;7310371;19;129071;-37
2022/07/04 06:30:15;;;;;;;27.15;3.20;;;;;;;25.44;52.19;99679.66;7310686;19;130314;-37
2022/07/04 06:32:48;;;;;;;33.25;3.55;;;;;;;25.46;54.08;99684.75;7308632;19;131366;-37
2022/07/04 06:38:01;;;;;;;27.33;2.65;;;;;;;25.46;52.09;99690.03;7312658;19;129090;-37
2022/07/04 06:40:26;;;;;;;41.93;4.27;;;;;;;25.42;52.51;99689.53;7306837;19;129733;-37
2022/07/04 06:42:52;;;;;;;30.70;3.55;;;;;;;25.45;52.64;99698.91;7308446;19;130230;-37
2022/07/04 06:45:17;;;;;;;33.37;3.53;;;;;;;25.46;52.63;99684.75;7310888;19;129290;-38
2022/07/04 06:47:44;;;;;;;17.67;2.50;;;;;;;25.48;52.15;99667.00;7310026;19;129297;-38
2022/07/04 06:50:09;;;;;;;29.02;2.83;;;;;;;25.46;51.86;99668.97;7310204;19;130405;-37
2022/07/04 06:52:35;;;;;;;19.53;2.23;;;;;;;25.43;52.57;99672.75;7307550;19;130673;-37
2022/07/04 06:55:00;;;;;;;26.25;2.95;;;;;;;25.45;52.78;99678.66;7310256;19;129139;-37
2022/07/04 06:57:26;;;;;;;35.70;3.50;;;;;;;25.43;52.81;99677.19;7308035;19;129870;-37
2022/07/04 06:59:51;;;;;;;60.30;6.07;;;;;;;25.44;52.12;99676.19;7308822;19;130047;-37
2022/07/04 07:02:16;;;;;;;37.35;3.85;;;;;;;25.47;52.18;99674.06;7304829;19;129240;-37
2022/07/04 07:04:42;;;;;;;29.10;2.95;;;;;;;25.46;52.64;99684.75;7298514;19;131348;-37
2022/07/04 07:07:08;;;;;;;23.07;2.53;;;;;;;25.45;52.62;99689.19;7309166;19;130855;-37
2022/07/04 07:09:34;;;;;;;23.43;2.27;;;;;;;25.51;52.33;99690.34;7309863;19;129773;-37
2022/07/04 07:11:59;;;;;;;44.00;4.88;;;;;;;25.51;52.08;99685.09;7307302;19;131049;-37
2022/07/04 07:14:25;;;;;;;24.50;2.97;;;;;;;25.38;52.45;99666.31;7303998;19;129821;-39
2022/07/04 07:16:50;;;;;;;32.60;3.43;;;;;;;25.43;52.36;99677.19;7310187;19;129209;-42
2022/07/04 07:19:15;;;;;;;44.43;4.33;;;;;;;25.45;52.72;99672.59;7308978;19;129778;-39
2022/07/04 07:21:41;;;;;;;3.60;1.07;;;;;;;25.44;52.99;99676.19;7308173;19;129673;-39
2022/07/04 07:24:06;;;;;;;31.50;3.37;;;;;;;25.37;52.78;99670.75;7310772;19;129744;-38
2022/07/04 07:26:32;;;;;;;26.07;2.70;;;;;;;25.45;52.67;99677.84;7308831;19;129542;-40
2022/07/04 07:28:57;;;;;;;30.07;3.33;;;;;;;25.46;51.94;99674.22;7309436;19;130317;-39
2022/07/04 07:31:22;;;;;;;63.10;6.13;;;;;;;25.50;52.93;99675.56;7302364;19;129464;-41
2022/07/04 07:33:48;;;;;;;18.90;2.00;;;;;;;25.45;52.97;99673.41;7308592;19;129123;-41
2022/07/04 07:36:13;;;;;;;24.80;3.17;;;;;;;25.45;52.33;99677.84;7307410;19;129177;-40
2022/07/04 07:38:39;;;;;;;17.03;1.87;;;;;;;25.46;52.33;99684.75;7308862;19;130887;-41
2022/07/04 07:41:08;;;;;;;23.07;2.37;;;;;;;25.43;53.55;99679.81;7308317;19;129491;-40
2022/07/04 07:43:34;;;;;;;27.35;3.08;;;;;;;25.43;52.66;99679.81;7308861;19;129925;-40
2022/07/04 07:45:59;;;;;;;36.30;3.93;;;;;;;25.44;52.49;99686.72;7309249;19;129481;-41
2022/07/04 07:48:25;;;;;;;37.60;3.67;;;;;;;25.42;52.39;99683.44;7307270;19;130552;-41
2022/07/04 07:50:50;;;;;;;25.73;2.63;;;;;;;25.40;52.79;99685.41;7306249;19;130031;-39
2022/07/04 07:53:16;;;;;;;36.30;3.77;;;;;;;25.39;52.51;99679.31;7307235;19;131018;-41
2022/07/04 07:55:41;;;;;;;30.70;3.23;;;;;;;25.35;52.67;99671.91;7305585;19;128889;-39
2022/07/04 07:58:07;;;;;;;26.00;2.67;;;;;;;25.43;52.84;99685.09;7307980;19;130389;-42
2022/07/04 08:00:32;;;;;;;55.50;6.55;;;;;;;25.48;52.02;99685.44;7304549;19;129878;-38
2022/07/04 08:05:41;;;;;;;20.40;2.50;;;;;;;25.48;53.04;99677.53;7309516;19;129009;-40
2022/07/04 08:08:07;;;;;;;18.87;2.40;;;;;;;25.43;52.57;99679.81;7307064;19;128953;-39
2022/07/04 08:10:32;;;;;;;40.60;4.07;;;;;;;25.39;51.83;99673.22;7314673;19;130393;-41
2022/07/04 08:12:58;;;;;;;28.48;3.13;;;;;;;25.44;52.04;99676.19;7313154;19;129819;-41
2022/07/04 08:15:24;;;;;;;25.17;2.80;;;;;;;25.40;52.12;99665.16;7314609;19;129239;-40
2022/07/04 08:17:50;;;;;;;28.20;3.17;;;;;;;25.39;52.33;99670.59;7316703;19;130783;-41
2022/07/04 08:20:15;;;;;;;45.60;3.97;;;;;;;25.29;52.60;99656.72;7313454;19;130225;-42
2022/07/04 08:22:41;;;;;;;28.83;3.27;;;;;;;25.38;52.69;99672.41;7313571;19;129937;-37
2022/07/04 08:25:06;;;;;;;30.23;3.17;;;;;;;25.38;52.55;99666.31;7314986;19;129185;-41
2022/07/04 08:27:32;;;;;;;29.97;3.27;;;;;;;25.46;52.21;99674.22;7315580;19;129627;-41
2022/07/04 08:29:57;;;;;;;42.17;4.53;;;;;;;25.48;51.97;99673.09;7315633;19;129964;-39
2022/07/04 08:32:23;;;;;;;28.92;3.13;;;;;;;25.44;52.16;99670.94;7313305;19;130675;-39
2022/07/04 08:34:48;;;;;;;27.03;2.97;;;;;;;25.42;52.22;99667.66;7315753;19;130209;-40
2022/07/04 08:37:15;;;;;;;8.80;1.35;;;;;;;25.42;52.69;99667.66;7314107;19;129763;-39
2022/07/04 08:39:40;;;;;;;41.10;4.00;;;;;;;25.46;52.63;99663.69;7315595;19;130484;-40
2022/07/04 08:42:12;;;;;;;39.27;3.90;;;;;;;25.45;53.91;99672.59;7312228;19;129607;-38
2022/07/04 08:44:41;;;;;;;28.77;3.05;;;;;;;25.36;52.40;99653.31;7315033;19;129554;-39
2022/07/04 08:47:09;;;;;;;41.33;4.20;;;;;;;25.43;52.97;99669.28;7312446;19;131194;-39
2022/07/04 08:49:38;;;;;;;34.42;3.83;;;;;;;25.43;51.89;99667.50;7312990;19;129669;-39
2022/07/04 08:52:07;;;;;;;30.05;3.38;;;;;;;25.44;52.10;99665.66;7312430;19;129644;-41
2022/07/04 09:00:06;;;;;;;34.70;3.95;;;;;;;25.44;52.14;99676.19;7312213;19;129666;-40
2022/07/04 09:02:33;;;;;;;33.63;3.75;;;;;;;25.34;51.71;99655.25;7312012;19;128923;-37
2022/07/04 09:04:59;;;;;;;33.10;3.65;;;;;;;25.42;52.32;99667.66;7314374;19;129115;-39
2022/07/04 09:07:28;;;;;;;37.47;3.87;;;;;;;25.42;52.60;99673.72;7313772;19;128969;-40
2022/07/04 09:09:54;;;;;;;41.60;4.57;;;;;;;25.42;52.26;99673.72;7313319;19;130471;-38
2022/07/04 09:12:19;;;;;;;29.23;2.70;;;;;;;25.48;51.81;99673.09;7312161;19;130485;-38
2022/07/04 09:14:45;;;;;;;30.33;3.27;;;;;;;25.44;51.50;99670.94;7315249;19;129008;-38
2022/07/04 09:17:10;;;;;;;14.23;2.30;;;;;;;25.39;52.49;99668.78;7314449;19;129483;-40
2022/07/04 09:19:35;;;;;;;32.17;3.53;;;;;;;25.34;51.54;99655.25;7314168;19;129941;-41
2022/07/04 09:22:11;;;;;;;34.83;3.73;;;;;;;25.41;53.72;99668.63;7309372;19;129733;-38
2022/07/04 09:24:52;;;;;;;22.25;2.58;;;;;;;25.43;54.89;99675.38;7314659;19;131473;-41
2022/07/04 09:27:37;;;;;;;27.92;3.05;;;;;;;25.46;54.66;99679.50;7314040;19;128995;-41
2022/07/04 09:30:06;;;;;;;51.38;5.10;;;;;;;25.45;52.79;99667.31;7313039;19;129826;-39
2022/07/04 09:32:43;;;;;;;19.95;2.10;;;;;;;25.46;53.92;99664.53;7312528;19;129216;-39
2022/07/04 09:35:11;;;;;;;27.67;2.95;;;;;;;25.43;51.50;99659.59;7312930;19;129669;-41
2022/07/04 09:37:41;;;;;;;18.58;2.05;;;;;;;25.42;52.78;99667.66;7313564;19;130192;-41
2022/07/04 09:40:09;;;;;;;26.60;2.67;;;;;;;25.44;51.97;99665.66;7312567;19;129895;-41
2022/07/04 09:42:39;;;;;;;11.68;1.65;;;;;;;25.33;51.85;99653.63;7308897;19;130321;-40
2022/07/04 09:45:07;;;;;;;23.73;2.53;;;;;;;25.43;52.70;99669.28;7313573;19;129705;-41
2022/07/04 09:47:32;;;;;;;24.05;2.70;;;;;;;25.38;51.66;99648.72;7314773;19;129870;-40
2022/07/04 09:50:05;;;;;;;49.87;5.03;;;;;;;25.48;53.68;99667.00;7313786;19;130302;-41
2022/07/04 09:52:32;;;;;;;16.88;2.15;;;;;;;25.39;51.71;99652.16;7312274;19;129251;-40
2022/07/04 09:54:58;;;;;;;;;;;;;;;25.49;55.06;99669.47;7311940;19;129675;-39
2022/07/04 09:57:24;;;;;;;38.63;4.03;;;;;;;25.47;51.83;99665.34;7313078;19;130835;-39
2022/07/04 09:59:49;;;;;;;12.97;1.80;;;;;;;25.38;51.92;99650.53;7311861;19;129134;-41
2022/07/04 10:02:15;;;;;;;34.17;3.75;;;;;;;25.46;52.20;99658.44;7309742;19;129422;-40
2022/07/04 10:04:51;;;;;;;23.33;2.73;;;;;;;25.45;52.43;99662.06;7313806;19;129116;-38
2022/07/04 10:07:35;;;;;;;29.55;2.75;;;;;;;25.45;54.96;99662.06;7312648;19;130170;-39
2022/07/04 10:10:19;;;;;;;48.30;5.05;;;;;;;25.44;52.35;99655.13;7311386;19;130627;-39
2022/07/04 10:12:49;;;;;;;20.77;2.30;;;;;;;25.43;54.43;99661.41;7310551;19;129422;-39
2022/07/04 10:15:15;;;;;;;23.90;2.85;;;;;;;25.45;53.10;99656.81;7312341;19;131420;-36
2022/07/04 10:17:41;;;;;;;26.90;2.40;;;;;;;25.50;52.49;99646.59;7313218;19;129093;-38
2022/07/04 10:20:07;;;;;;;42.83;4.43;;;;;;;25.41;52.83;99629.13;7311864;19;129335;-39
2022/07/04 10:22:33;;;;;;;34.00;3.60;;;;;;;25.50;52.87;99633.44;7311507;19;128958;-41
2022/07/04 10:24:59;;;;;;;42.45;4.35;;;;;;;25.53;52.58;99638.38;7311055;19;129486;-40
2022/07/04 10:27:24;;;;;;;29.77;3.30;;;;;;;25.53;52.10;99631.31;7312474;19;129095;-41
2022/07/04 10:29:50;;;;;;;41.50;4.27;;;;;;;25.52;53.01;99631.44;7312853;19;130295;-41
2022/07/04 10:32:17;;;;;;;23.33;2.70;;;;;;;25.55;53.07;99631.13;7311659;19;129006;-39
2022/07/04 10:34:42;;;;;;;30.65;3.53;;;;;;;25.56;52.79;99633.59;7312469;19;131535;-40
2022/07/04 10:37:07;;;;;;;21.33;2.38;;;;;;;25.57;52.97;99624.72;7312864;19;130236;-39
2022/07/04 10:39:33;;;;;;;28.43;3.30;;;;;;;25.58;53.03;99622.91;7312305;19;129600;-41
2022/07/04 10:42:01;;;;;;;22.10;2.57;;;;;;;25.57;53.38;99629.97;7310804;19;129320;-41
2022/07/04 10:44:26;;;;;;;24.38;2.63;;;;;;;25.59;52.89;99621.91;7313326;19;129098;-38
2022/07/04 10:46:56;;;;;;;26.50;2.90;;;;;;;25.59;53.21;99622.75;7312628;19;130532;-40
2022/07/04 10:49:24;;;;;;;31.30;3.55;;;;;;;25.57;53.09;99622.06;7311182;19;130105;-38
2022/07/04 10:51:52;;;;;;;33.15;3.42;;;;;;;25.60;52.40;99624.38;7310295;19;129364;-42
2022/07/04 10:54:20;;;;;;;53.17;4.85;;;;;;;25.61;52.21;99625.22;7309580;19;129560;-38
2022/07/04 10:56:49;;;;;;;42.60;4.55;;;;;;;25.59;52.24;99619.28;7302796;19;129492;-41
2022/07/04 10:59:16;;;;;;;26.30;2.65;;;;;;;25.59;52.87;99611.38;7310751;19;129337;-41
2022/07/04 11:02:06;;;;;;;29.90;3.22;;;;;;;25.61;55.19;99609.41;7309642;19;129267;-39
2022/07/04 11:04:50;;;;;;;24.08;2.63;;;;;;;25.65;54.81;99608.09;7311277;19;129167;-41
2022/07/04 11:07:42;;;;;;;23.58;2.92;;;;;;;25.61;52.93;99604.13;7313034;19;130123;-38
2022/07/04 11:10:13;;;;;;;42.40;4.13;;;;;;;25.64;52.83;99611.69;7309456;19;130534;-40
2022/07/04 11:12:53;;;;;;;23.80;2.65;;;;;;;25.62;54.39;99603.97;7309062;19;129043;-38
2022/07/04 11:15:40;;;;;;;10.77;1.70;;;;;;;25.54;55.30;99595.25;7311138;19;130384;-40
2022/07/04 11:18:12;;;;;;;23.07;2.63;;;;;;;25.63;54.42;99602.16;7309763;19;130157;-40
2022/07/04 11:20:43;;;;;;;32.22;3.33;;;;;;;25.65;53.47;99600.19;7308971;19;129742;-40
2022/07/04 11:23:10;;;;;;;24.58;2.35;;;;;;;25.62;52.59;99600.50;7309435;19;129491;-42
2022/07/04 11:25:37;;;;;;;26.23;3.00;;;;;;;25.58;52.90;99593.94;7310278;19;131034;-40
2022/07/04 11:28:30;;;;;;;14.40;1.75;;;;;;;25.63;55.17;99607.44;7310689;19;129675;-41
2022/07/04 11:30:57;;;;;;;34.95;3.72;;;;;;;25.63;52.73;99602.16;7308391;19;130697;-40
2022/07/04 11:33:25;;;;;;;30.65;3.05;;;;;;;25.63;52.97;99602.97;7306363;19;129791;-39